Athol, Pennsylvania
Current Conditions -  °F | °C
As of 9:54 AM on Monday 24 Nov 2014 (Local Time) from KPTW Reporting Station
Overcast Overcast  
Wind Chill: 19°   Ceiling: 2400
Heat Index: 19°   Visibility: 10mi
Dew Point: 15°   Wind: 13mph
Humidity: 76%   Direction: 190°S
Pressure: 29.68"   Gusts: 23mph
Location:  40.3194°N, 75.7364°W
Report Text: KPTW 241454Z AUTO 19011G20KT 10SM BKN024 OVC033 19/15 A2968 RMK AO2 SLP048 T01940150 51003
Loading
Personal Weather Stations






























Interactive Weather Map New forecast layout! Learn more

10-Day Weather Forecast

Advertisements
Track Severe Weather on mobile